METAR Data
IDs: Format: Raw Decoded Include TAF

Data at: 0838 UTC 18 Sep 2021

PASX 180756Z AUTO 00000KT 10SM OVC065 09/07 A2950 RMK AO2 SLP999 T00940072